Time;durP1;ratioP1;P1;durP2;ratioP2;P2;SDS_P1;SDS_P2;PMS_P1;PMS_P2;Temp;Humidity;BMP_temperature;BMP_pressure;BME280_temperature;BME280_humidity;BME280_pressure;Samples;Min_cycle;Max_cycle;Signal;HPM_P1;HPM_P2
2022/07/20 00:00:29;;;;;;;10.23;4.00;;;24.70;59.60;;;;;;5067563;28;20033;-66
2022/07/20 00:02:55;;;;;;;9.73;3.70;;;24.70;59.40;;;;;;5065613;28;20028;-66
2022/07/20 00:05:22;;;;;;;17.23;5.13;;;24.70;59.60;;;;;;5066517;28;20398;-66
2022/07/20 00:07:47;;;;;;;10.00;4.15;;;24.70;59.80;;;;;;5068827;28;20024;-66
2022/07/20 00:12:57;;;;;;;12.50;4.50;;;24.60;59.80;;;;;;5064429;28;20488;-66
2022/07/20 00:15:23;;;;;;;11.23;4.20;;;24.50;60.40;;;;;;5067766;28;20036;-66
2022/07/20 00:17:49;;;;;;;14.13;4.78;;;24.40;60.40;;;;;;5067532;28;20287;-66
2022/07/20 00:20:14;;;;;;;9.55;4.60;;;24.40;60.00;;;;;;5065967;28;20099;-66
2022/07/20 00:22:40;;;;;;;8.23;4.32;;;24.40;59.90;;;;;;5069211;28;20035;-66
2022/07/20 00:25:06;;;;;;;8.65;4.43;;;24.30;60.10;;;;;;5067256;28;20021;-66
2022/07/20 00:27:32;;;;;;;9.90;4.10;;;24.30;60.30;;;;;;5066747;28;20150;-66
2022/07/20 00:29:57;;;;;;;10.27;4.10;;;24.30;60.50;;;;;;5067525;28;20028;-66
2022/07/20 00:32:23;;;;;;;9.15;4.20;;;24.30;60.70;;;;;;5050252;28;20475;-66
2022/07/20 00:34:48;;;;;;;10.65;4.45;;;24.10;60.90;;;;;;5045981;28;20059;-66
2022/07/20 00:37:14;;;;;;;9.27;4.22;;;23.90;61.50;;;;;;5064590;28;20021;-66
2022/07/20 00:39:40;;;;;;;8.05;4.30;;;23.90;61.30;;;;;;5069302;28;20023;-66
2022/07/20 00:42:05;;;;;;;9.10;4.20;;;23.80;61.40;;;;;;5066150;28;20045;-66
2022/07/20 00:44:31;;;;;;;10.35;4.63;;;23.80;61.80;;;;;;5068895;28;20108;-66
2022/07/20 00:46:56;;;;;;;10.82;4.47;;;23.80;62.10;;;;;;5067718;28;20028;-66
2022/07/20 00:49:22;;;;;;;11.60;4.55;;;23.80;62.00;;;;;;5069139;28;20082;-66
2022/07/20 00:51:48;;;;;;;11.25;4.35;;;23.70;62.20;;;;;;5067140;28;20039;-66
2022/07/20 00:54:14;;;;;;;8.68;4.05;;;23.80;61.80;;;;;;5068154;28;20025;-66
2022/07/20 00:56:40;;;;;;;12.15;4.20;;;23.80;61.70;;;;;;5049153;28;20031;-66
2022/07/20 00:59:07;;;;;;;8.13;4.30;;;23.80;61.90;;;;;;5067846;28;20136;-66
2022/07/20 01:01:34;;;;;;;10.50;4.20;;;23.80;62.40;;;;;;5066750;28;20103;-66
2022/07/20 01:04:00;;;;;;;9.38;4.30;;;23.80;62.50;;;;;;5068096;28;20500;-66
2022/07/20 01:06:26;;;;;;;11.02;4.25;;;23.70;62.70;;;;;;5063060;28;20419;-66
2022/07/20 01:08:52;;;;;;;9.32;4.28;;;23.60;62.60;;;;;;5049346;28;20112;-66
2022/07/20 01:11:18;;;;;;;8.88;3.88;;;23.50;63.30;;;;;;5067657;28;20060;-66
2022/07/20 01:13:44;;;;;;;13.63;4.20;;;23.30;63.20;;;;;;5064976;28;20070;-66
2022/07/20 01:16:10;;;;;;;12.45;4.35;;;23.30;63.20;;;;;;5066847;28;20024;-66
2022/07/20 01:18:36;;;;;;;11.75;4.22;;;23.20;63.20;;;;;;5067809;28;20020;-66
2022/07/20 01:21:06;;;;;;;9.52;4.30;;;23.20;63.40;;;;;;5048509;28;20103;-66
2022/07/20 01:23:32;;;;;;;8.57;4.20;;;23.20;63.40;;;;;;5047540;28;20115;-66
2022/07/20 01:25:58;;;;;;;15.13;4.50;;;23.30;63.40;;;;;;5045053;28;20107;-66
2022/07/20 01:28:25;;;;;;;8.48;3.85;;;23.40;63.10;;;;;;5064572;28;20154;-66
2022/07/20 01:30:51;;;;;;;10.13;4.10;;;23.50;63.40;;;;;;5049586;28;20021;-66
2022/07/20 01:33:17;;;;;;;8.95;3.95;;;23.60;62.60;;;;;;5063341;28;20024;-66
2022/07/20 01:35:43;;;;;;;12.50;4.35;;;23.60;62.20;;;;;;5066764;28;20109;-66
2022/07/20 01:38:08;;;;;;;8.57;4.07;;;23.80;61.50;;;;;;5064630;28;20024;-66
2022/07/20 01:40:34;;;;;;;10.15;4.20;;;24.10;60.80;;;;;;5066531;28;20021;-66
2022/07/20 01:43:00;;;;;;;8.55;4.15;;;24.30;60.00;;;;;;5065804;28;20457;-65
2022/07/20 01:45:25;;;;;;;8.52;4.00;;;24.50;59.70;;;;;;5067228;28;20099;-66
2022/07/20 01:47:51;;;;;;;7.78;4.10;;;24.60;59.80;;;;;;5046280;28;20043;-66
2022/07/20 01:50:16;;;;;;;8.57;4.30;;;24.60;59.40;;;;;;5066138;28;20063;-66
2022/07/20 01:52:42;;;;;;;7.53;3.80;;;24.50;59.70;;;;;;5047150;28;20399;-66
2022/07/20 01:55:08;;;;;;;8.30;4.00;;;24.50;59.90;;;;;;5066451;28;20019;-66
2022/07/20 01:57:34;;;;;;;8.48;3.80;;;24.40;61.00;;;;;;5049208;28;20503;-66
2022/07/20 01:59:59;;;;;;;9.50;4.10;;;24.40;59.90;;;;;;5038167;28;20072;-66
2022/07/20 02:02:25;;;;;;;9.55;3.88;;;24.50;60.20;;;;;;5027035;28;20108;-66
2022/07/20 02:04:50;;;;;;;12.57;4.30;;;24.40;60.00;;;;;;5047596;28;20058;-66
2022/07/20 02:07:16;;;;;;;9.60;4.00;;;24.50;59.90;;;;;;5046465;28;20080;-66
2022/07/20 02:09:42;;;;;;;9.65;4.10;;;24.50;60.10;;;;;;5044361;28;20025;-66
2022/07/20 02:12:07;;;;;;;10.57;4.55;;;24.50;59.70;;;;;;5027107;28;20315;-65
2022/07/20 02:14:33;;;;;;;10.80;4.07;;;24.50;60.20;;;;;;5046355;28;20037;-66
2022/07/20 02:16:59;;;;;;;7.97;3.75;;;24.50;59.70;;;;;;5046298;28;20024;-66
2022/07/20 02:19:25;;;;;;;7.65;3.60;;;24.50;59.80;;;;;;5046298;28;20017;-66
2022/07/20 02:21:50;;;;;;;9.15;4.07;;;24.60;59.50;;;;;;5047308;28;20025;-66
2022/07/20 02:24:16;;;;;;;12.95;3.70;;;24.60;60.60;;;;;;5042120;28;20032;-66
2022/07/20 02:26:41;;;;;;;8.75;3.80;;;24.60;59.90;;;;;;5026904;28;20025;-66
2022/07/20 02:29:07;;;;;;;8.45;3.85;;;24.50;59.90;;;;;;5026834;28;20021;-65
2022/07/20 02:31:33;;;;;;;11.68;4.15;;;24.50;60.90;;;;;;5029136;28;20071;-66
2022/07/20 02:33:59;;;;;;;12.13;4.30;;;24.50;60.10;;;;;;5046199;28;20032;-66
2022/07/20 02:36:24;;;;;;;21.38;5.32;;;24.50;59.90;;;;;;5027096;28;20029;-66
2022/07/20 02:38:50;;;;;;;12.60;4.13;;;24.40;60.40;;;;;;5043215;28;20032;-66
2022/07/20 02:41:16;;;;;;;10.25;4.00;;;24.30;60.90;;;;;;5045899;28;20036;-66
2022/07/20 02:43:41;;;;;;;9.48;4.30;;;24.20;61.30;;;;;;5041514;28;20075;-66
2022/07/20 02:46:08;;;;;;;12.65;4.32;;;24.10;61.20;;;;;;5043906;28;20477;-66
2022/07/20 02:48:34;;;;;;;9.95;3.97;;;23.90;61.30;;;;;;5026889;28;20092;-66
2022/07/20 02:50:59;;;;;;;8.63;4.10;;;23.80;61.60;;;;;;5046266;28;20052;-66
2022/07/20 02:53:25;;;;;;;10.18;4.03;;;23.80;62.30;;;;;;5027546;28;20025;-66
2022/07/20 02:55:51;;;;;;;9.77;4.05;;;23.70;62.10;;;;;;5045083;28;20108;-66
2022/07/20 02:58:17;;;;;;;9.88;4.40;;;23.70;62.50;;;;;;5046398;28;20060;-66
2022/07/20 03:00:43;;;;;;;10.00;4.07;;;23.70;62.60;;;;;;5063472;28;20068;-66
2022/07/20 03:03:09;;;;;;;9.38;4.00;;;23.70;62.20;;;;;;5068262;28;20516;-66
2022/07/20 03:05:35;;;;;;;7.57;3.72;;;23.70;62.50;;;;;;5064301;28;20021;-65
2022/07/20 03:08:01;;;;;;;12.73;4.18;;;23.70;62.70;;;;;;5045632;28;20044;-66
2022/07/20 03:10:28;;;;;;;10.35;4.10;;;23.70;62.40;;;;;;5044798;28;20025;-66
2022/07/20 03:12:53;;;;;;;11.35;4.18;;;23.70;62.40;;;;;;5060467;28;20028;-66
2022/07/20 03:15:19;;;;;;;11.07;3.80;;;23.80;62.20;;;;;;5066606;28;20166;-66
2022/07/20 03:17:47;;;;;;;11.55;4.15;;;23.80;62.00;;;;;;5065914;28;20029;-66
2022/07/20 03:20:14;;;;;;;10.18;4.32;;;23.80;62.10;;;;;;5065809;28;20024;-66
2022/07/20 03:22:41;;;;;;;8.18;4.03;;;23.70;62.30;;;;;;5065941;28;20389;-66
2022/07/20 03:25:07;;;;;;;11.18;3.95;;;23.80;62.10;;;;;;5066358;28;20035;-66
2022/07/20 03:27:33;;;;;;;9.52;3.80;;;23.90;62.00;;;;;;5063589;28;20036;-66
2022/07/20 03:29:59;;;;;;;8.95;4.10;;;23.90;61.70;;;;;;5064620;28;20059;-66
2022/07/20 03:32:24;;;;;;;10.63;3.97;;;24.00;61.50;;;;;;5065266;28;20143;-66
2022/07/20 03:34:50;;;;;;;9.18;3.72;;;24.00;61.70;;;;;;5064926;28;20031;-66
2022/07/20 03:37:16;;;;;;;9.32;3.92;;;23.90;61.70;;;;;;5063387;28;20107;-66
2022/07/20 03:39:41;;;;;;;13.02;3.95;;;23.90;61.70;;;;;;5067911;28;20020;-66
2022/07/20 03:42:07;;;;;;;9.27;4.10;;;24.00;61.40;;;;;;5065447;28;20064;-66
2022/07/20 03:44:32;;;;;;;11.27;4.13;;;23.90;61.50;;;;;;5067089;28;20039;-66
2022/07/20 03:46:58;;;;;;;9.52;3.95;;;24.10;61.00;;;;;;5068053;28;20051;-66
2022/07/20 03:49:24;;;;;;;8.35;3.75;;;24.20;61.10;;;;;;5069154;28;20426;-66
2022/07/20 03:51:49;;;;;;;14.32;4.30;;;24.20;60.90;;;;;;5070001;28;20377;-66
2022/07/20 03:54:15;;;;;;;10.52;3.88;;;24.20;61.20;;;;;;5068197;28;20017;-66
2022/07/20 03:56:41;;;;;;;9.20;3.22;;;24.20;61.00;;;;;;5068837;28;20017;-66
2022/07/20 03:59:12;;;;;;;10.10;3.85;;;24.20;61.20;;;;;;5066703;28;20484;-66
2022/07/20 04:01:38;;;;;;;11.18;3.60;;;24.10;61.70;;;;;;5065501;28;20037;-66
2022/07/20 04:04:04;;;;;;;9.07;3.90;;;24.10;62.90;;;;;;5049967;28;20029;-66
2022/07/20 04:06:30;;;;;;;11.05;3.80;;;23.90;63.00;;;;;;5051022;28;20151;-66
2022/07/20 04:08:56;;;;;;;12.73;3.97;;;23.90;62.80;;;;;;5069156;28;20024;-66
2022/07/20 04:11:22;;;;;;;12.32;4.10;;;23.80;63.50;;;;;;5065269;28;20404;-66
2022/07/20 04:13:47;;;;;;;19.23;4.10;;;23.80;63.90;;;;;;5064488;28;20074;-66
2022/07/20 04:16:13;;;;;;;8.57;3.97;;;23.90;62.80;;;;;;5067400;28;20546;-67
2022/07/20 04:18:39;;;;;;;10.07;3.78;;;23.90;63.20;;;;;;5047474;28;20047;-72
2022/07/20 04:21:05;;;;;;;8.30;3.97;;;24.00;62.80;;;;;;5052706;28;20555;-66
2022/07/20 04:23:30;;;;;;;10.32;3.92;;;24.20;63.40;;;;;;5050773;28;20032;-65
2022/07/20 04:25:56;;;;;;;12.35;4.18;;;24.20;63.30;;;;;;5061931;28;20384;-65
2022/07/20 04:28:22;;;;;;;10.82;3.92;;;24.20;63.40;;;;;;5042287;28;20029;-65
2022/07/20 04:30:47;;;;;;;12.20;3.65;;;24.30;64.00;;;;;;5065145;28;20528;-65
2022/07/20 04:33:13;;;;;;;13.77;4.38;;;24.30;63.40;;;;;;5046503;28;20587;-65
2022/07/20 04:35:38;;;;;;;12.25;4.25;;;24.30;63.30;;;;;;5066513;28;20121;-65
2022/07/20 04:38:04;;;;;;;13.57;4.53;;;24.40;63.30;;;;;;5067573;28;20028;-65
2022/07/20 04:40:30;;;;;;;11.52;3.97;;;24.70;62.40;;;;;;5065633;28;20021;-65
2022/07/20 04:42:55;;;;;;;9.95;4.25;;;24.90;61.60;;;;;;5064096;28;20044;-65
2022/07/20 04:45:21;;;;;;;11.02;4.22;;;25.10;61.40;;;;;;5045551;28;20349;-65
2022/07/20 04:47:47;;;;;;;9.02;3.85;;;25.20;60.90;;;;;;5062323;28;20164;-65
2022/07/20 04:50:13;;;;;;;8.95;3.92;;;25.30;60.60;;;;;;5063875;28;20024;-65
2022/07/20 04:52:39;;;;;;;8.55;3.72;;;25.50;60.40;;;;;;5044307;28;20558;-65
2022/07/20 04:55:06;;;;;;;11.35;3.80;;;25.70;59.80;;;;;;5064753;28;20404;-66
2022/07/20 04:57:32;;;;;;;11.85;4.40;;;25.90;59.70;;;;;;5063971;28;20024;-65
2022/07/20 04:59:57;;;;;;;11.95;3.63;;;26.00;60.30;;;;;;5064148;28;20044;-66
2022/07/20 05:02:23;;;;;;;13.65;3.67;;;26.00;60.50;;;;;;5061262;28;20116;-66
2022/07/20 05:04:49;;;;;;;12.35;3.90;;;25.90;61.30;;;;;;5064129;28;20059;-66
2022/07/20 05:07:15;;;;;;;9.15;4.10;;;25.70;62.70;;;;;;5062508;28;20032;-66
2022/07/20 05:09:41;;;;;;;13.68;3.80;;;25.50;63.30;;;;;;5064719;28;20111;-66
2022/07/20 05:12:08;;;;;;;12.90;4.63;;;25.40;62.90;;;;;;5060491;28;20064;-66
2022/07/20 05:14:33;;;;;;;11.20;4.32;;;25.40;63.50;;;;;;5045778;28;20029;-66
2022/07/20 05:16:59;;;;;;;10.23;4.00;;;25.30;63.70;;;;;;5063405;28;20046;-66
2022/07/20 05:19:25;;;;;;;9.30;3.90;;;25.30;64.00;;;;;;5063363;28;20071;-66
2022/07/20 05:21:50;;;;;;;12.73;4.22;;;25.40;64.10;;;;;;5046836;28;20412;-66
2022/07/20 05:24:16;;;;;;;9.23;4.13;;;25.40;63.70;;;;;;5064238;28;20021;-66
2022/07/20 05:26:42;;;;;;;8.73;4.18;;;25.50;64.50;;;;;;5040624;28;20111;-66
2022/07/20 05:29:07;;;;;;;9.25;3.88;;;25.50;63.50;;;;;;5062295;28;20144;-66
2022/07/20 05:31:33;;;;;;;10.48;3.92;;;25.60;64.70;;;;;;5047121;28;20313;-66
2022/07/20 05:33:59;;;;;;;9.88;4.25;;;25.70;64.10;;;;;;5061974;28;20040;-66
2022/07/20 05:36:24;;;;;;;11.50;4.28;;;25.70;64.20;;;;;;5045589;28;20024;-66
2022/07/20 05:38:50;;;;;;;11.35;3.92;;;25.80;63.90;;;;;;5045245;28;20085;-66
2022/07/20 05:41:16;;;;;;;11.32;4.00;;;25.90;66.40;;;;;;5063992;28;20052;-66
2022/07/20 05:43:41;;;;;;;12.15;3.90;;;25.90;64.80;;;;;;5062986;28;20443;-65
2022/07/20 05:46:07;;;;;;;8.65;3.90;;;26.10;64.60;;;;;;5063416;28;20031;-66
2022/07/20 05:48:33;;;;;;;9.95;3.88;;;26.20;66.10;;;;;;5045377;28;20044;-66
2022/07/20 05:50:59;;;;;;;11.02;4.25;;;26.30;64.20;;;;;;5059781;28;20025;-66
2022/07/20 05:53:25;;;;;;;12.15;4.50;;;26.40;64.60;;;;;;5061717;28;20024;-66
2022/07/20 05:55:50;;;;;;;10.68;3.92;;;26.50;65.10;;;;;;5061120;28;20021;-66
2022/07/20 05:58:16;;;;;;;10.25;4.18;;;26.70;63.20;;;;;;5061690;28;20035;-66
2022/07/20 06:00:42;;;;;;;9.43;4.00;;;27.00;62.60;;;;;;5064619;28;20071;-66
2022/07/20 06:03:08;;;;;;;14.55;4.38;;;27.20;61.70;;;;;;5040872;28;20044;-64
2022/07/20 06:05:34;;;;;;;10.48;4.13;;;27.40;60.60;;;;;;5038827;28;20206;-63
2022/07/20 06:08:00;;;;;;;10.68;4.00;;;27.50;59.20;;;;;;5059240;28;20028;-64
2022/07/20 06:10:28;;;;;;;9.25;3.97;;;27.70;58.80;;;;;;5064371;28;20032;-64
2022/07/20 06:12:55;;;;;;;14.00;3.80;;;27.90;59.10;;;;;;5063027;28;20123;-63
2022/07/20 06:15:22;;;;;;;10.38;3.72;;;28.00;57.50;;;;;;5063776;28;20510;-64
2022/07/20 06:17:48;;;;;;;7.55;3.63;;;28.20;57.30;;;;;;5053877;28;20024;-64
2022/07/20 06:20:15;;;;;;;14.98;3.85;;;28.30;57.10;;;;;;5059899;28;20495;-64
2022/07/20 06:22:42;;;;;;;9.38;3.90;;;28.40;57.20;;;;;;5059050;28;20409;-64
2022/07/20 06:25:09;;;;;;;11.27;3.92;;;28.50;56.70;;;;;;5056460;28;20444;-64
2022/07/20 06:27:36;;;;;;;9.98;4.28;;;28.60;57.00;;;;;;5042671;28;20111;-64
2022/07/20 06:30:03;;;;;;;11.85;3.85;;;28.70;57.70;;;;;;5059785;28;20318;-64
2022/07/20 06:32:29;;;;;;;9.88;3.95;;;28.70;56.80;;;;;;5062907;28;20436;-64
2022/07/20 06:34:54;;;;;;;10.88;3.85;;;28.80;56.90;;;;;;5042413;28;20147;-64
2022/07/20 06:37:20;;;;;;;11.32;3.90;;;28.80;56.90;;;;;;5045524;28;20043;-64
2022/07/20 06:39:46;;;;;;;10.25;3.90;;;28.70;56.90;;;;;;5067959;28;20020;-64
2022/07/20 06:42:12;;;;;;;7.00;3.15;;;28.70;57.10;;;;;;5059832;28;20499;-64
2022/07/20 06:44:38;;;;;;;9.88;3.95;;;28.70;56.80;;;;;;5063874;28;20464;-64
2022/07/20 06:47:04;;;;;;;11.85;4.10;;;28.60;57.00;;;;;;5060319;28;20054;-64
2022/07/20 06:49:30;;;;;;;10.52;3.90;;;28.60;56.90;;;;;;5064528;28;20031;-64
2022/07/20 06:51:57;;;;;;;8.55;3.75;;;28.60;56.80;;;;;;5064847;28;20123;-64
2022/07/20 06:54:23;;;;;;;12.57;4.45;;;28.60;57.00;;;;;;5064375;28;20114;-64
2022/07/20 06:56:48;;;;;;;9.10;4.05;;;28.60;56.70;;;;;;5064897;28;20035;-64
2022/07/20 06:59:14;;;;;;;8.23;3.42;;;28.60;56.70;;;;;;5063783;28;20063;-64
2022/07/20 07:01:39;;;;;;;8.73;3.95;;;28.70;57.50;;;;;;5064710;28;20051;-64
2022/07/20 07:04:05;;;;;;;10.05;3.58;;;28.70;58.00;;;;;;5063719;28;20028;-65
2022/07/20 07:06:32;;;;;;;9.43;3.78;;;28.80;57.60;;;;;;5047927;28;20043;-65
2022/07/20 07:08:59;;;;;;;8.52;3.70;;;28.80;57.60;;;;;;5065566;28;20099;-65
2022/07/20 07:11:25;;;;;;;9.52;3.90;;;28.80;58.20;;;;;;5062426;28;20050;-66
2022/07/20 07:13:51;;;;;;;8.65;4.07;;;28.90;58.10;;;;;;5064676;28;20029;-66
2022/07/20 07:16:16;;;;;;;9.52;4.15;;;28.90;58.20;;;;;;5067954;28;20443;-67
2022/07/20 07:18:42;;;;;;;8.63;4.00;;;29.00;58.30;;;;;;5068642;28;20369;-66
2022/07/20 07:21:07;;;;;;;10.00;4.00;;;29.10;57.80;;;;;;5067941;28;20107;-66
2022/07/20 07:23:33;;;;;;;8.25;3.78;;;29.10;57.90;;;;;;5050157;28;20032;-66
2022/07/20 07:25:59;;;;;;;11.52;3.90;;;29.00;58.20;;;;;;5068423;28;20035;-66
2022/07/20 07:28:24;;;;;;;13.48;4.38;;;29.10;58.50;;;;;;5067349;28;20430;-66
2022/07/20 07:30:50;;;;;;;14.20;4.72;;;28.80;58.10;;;;;;5068123;28;20042;-66
2022/07/20 07:33:16;;;;;;;12.07;4.65;;;28.60;58.80;;;;;;5067663;28;20065;-65
2022/07/20 07:35:43;;;;;;;15.90;5.07;;;28.70;59.10;;;;;;5068052;28;20029;-66
2022/07/20 07:38:09;;;;;;;11.75;5.10;;;28.60;59.10;;;;;;5068545;28;20149;-66
2022/07/20 07:40:34;;;;;;;15.02;5.70;;;28.70;60.20;;;;;;5068116;28;20066;-66
2022/07/20 07:43:00;;;;;;;13.85;6.38;;;28.50;60.90;;;;;;5066628;28;20036;-66
2022/07/20 07:45:26;;;;;;;13.75;6.97;;;28.20;61.80;;;;;;5067298;28;20029;-67
2022/07/20 07:47:52;;;;;;;16.70;7.15;;;28.10;62.70;;;;;;5067816;28;20021;-67
2022/07/20 07:50:17;;;;;;;14.75;7.43;;;28.00;62.80;;;;;;5067190;28;20774;-66
2022/07/20 07:52:43;;;;;;;16.13;8.15;;;27.80;63.60;;;;;;5067946;28;20028;-67
2022/07/20 07:55:09;;;;;;;21.63;11.50;;;28.00;64.90;;;;;;5067581;28;20157;-67
2022/07/20 07:57:34;;;;;;;19.40;10.30;;;28.10;66.80;;;;;;5067656;28;20117;-67
2022/07/20 08:00:00;;;;;;;20.20;11.57;;;28.10;67.00;;;;;;5067741;28;20096;-66
2022/07/20 08:02:26;;;;;;;21.63;11.68;;;28.00;67.90;;;;;;5049406;28;20070;-66
2022/07/20 08:04:52;;;;;;;24.50;13.10;;;28.10;67.80;;;;;;5049946;28;20024;-65
2022/07/20 08:07:17;;;;;;;20.33;12.32;;;27.90;67.90;;;;;;5067569;28;20143;-65
2022/07/20 08:09:43;;;;;;;20.52;11.68;;;27.90;68.60;;;;;;5049479;28;20025;-66
2022/07/20 08:12:09;;;;;;;23.65;11.98;;;27.70;69.10;;;;;;5065501;28;20087;-67
2022/07/20 08:14:34;;;;;;;22.98;13.27;;;27.50;69.60;;;;;;5049045;28;20025;-67
2022/07/20 08:17:00;;;;;;;29.70;13.70;;;27.80;69.70;;;;;;5067620;28;20190;-64
2022/07/20 08:19:26;;;;;;;26.48;14.07;;;28.00;69.60;;;;;;5066720;28;20036;-67
2022/07/20 08:21:51;;;;;;;21.20;12.93;;;28.30;69.20;;;;;;5067445;28;20341;-67
2022/07/20 08:24:17;;;;;;;30.05;13.35;;;28.80;68.40;;;;;;5049557;28;20024;-67
2022/07/20 08:26:43;;;;;;;31.77;14.93;;;28.50;68.70;;;;;;5066642;28;20449;-67
2022/07/20 08:29:09;;;;;;;25.90;15.13;;;28.40;69.20;;;;;;5048973;28;20024;-67
2022/07/20 08:31:35;;;;;;;22.02;12.48;;;28.70;68.90;;;;;;5066983;28;20103;-67
2022/07/20 08:34:01;;;;;;;32.20;15.70;;;28.90;68.30;;;;;;5067383;28;20470;-67
2022/07/20 08:36:27;;;;;;;31.27;16.65;;;29.10;68.90;;;;;;5048295;28;20074;-67
2022/07/20 08:38:52;;;;;;;26.02;14.70;;;29.30;68.60;;;;;;5048734;28;20032;-68
2022/07/20 08:41:18;;;;;;;21.55;13.40;;;29.40;67.90;;;;;;5063344;28;20087;-64
2022/07/20 08:43:44;;;;;;;24.20;13.85;;;29.30;67.80;;;;;;5063984;28;20112;-64
2022/07/20 08:46:11;;;;;;;24.35;15.70;;;29.50;67.80;;;;;;5049113;28;20016;-64
2022/07/20 08:48:38;;;;;;;29.05;14.93;;;29.60;68.10;;;;;;5048532;28;20503;-64
2022/07/20 08:51:04;;;;;;;25.65;15.13;;;29.50;66.90;;;;;;5048646;28;20072;-64
2022/07/20 08:53:29;;;;;;;32.40;17.58;;;29.60;67.10;;;;;;5048183;28;20024;-64
2022/07/20 08:55:55;;;;;;;25.67;15.40;;;29.50;66.90;;;;;;5047803;28;20108;-64
2022/07/20 08:58:21;;;;;;;34.67;16.33;;;29.40;66.80;;;;;;5065962;28;20324;-64
2022/07/20 09:00:47;;;;;;;26.92;16.15;;;29.50;66.80;;;;;;5066605;28;20450;-64
2022/07/20 09:03:13;;;;;;;30.13;17.90;;;29.90;66.20;;;;;;5065083;28;20115;-64
2022/07/20 09:05:41;;;;;;;30.02;15.88;;;30.40;65.30;;;;;;5066060;28;20028;-64
2022/07/20 09:08:14;;;;;;;28.85;16.85;;;30.70;63.70;;;;;;5066195;28;20424;-64
2022/07/20 09:10:42;;;;;;;29.25;16.75;;;30.80;63.90;;;;;;5066378;28;20045;-64
2022/07/20 09:13:17;;;;;;;23.25;15.18;;;30.90;63.70;;;;;;5059565;28;20107;-64
2022/07/20 09:15:53;;;;;;;28.48;16.20;;;30.40;62.80;;;;;;5066168;28;20028;-64
2022/07/20 09:18:24;;;;;;;24.20;14.95;;;30.10;64.10;;;;;;5062310;28;20044;-64
2022/07/20 09:20:55;;;;;;;25.17;15.05;;;29.90;64.30;;;;;;5066001;28;20028;-64
2022/07/20 09:23:27;;;;;;;26.05;15.15;;;29.90;64.60;;;;;;5065540;28;20089;-64
2022/07/20 09:26:04;;;;;;;29.83;17.98;;;30.10;64.50;;;;;;5066001;28;20029;-64
2022/07/20 09:28:40;;;;;;;24.17;16.23;;;30.10;64.30;;;;;;5065199;28;20032;-64
2022/07/20 09:31:13;;;;;;;28.50;15.93;;;30.60;63.80;;;;;;5066051;28;20044;-64
2022/07/20 09:33:40;;;;;;;28.27;16.80;;;31.20;63.40;;;;;;5061863;28;20045;-64
2022/07/20 09:36:06;;;;;;;27.15;16.98;;;31.40;63.00;;;;;;5065403;28;20055;-64
2022/07/20 09:38:41;;;;;;;27.13;17.52;;;31.80;62.20;;;;;;5065067;28;20499;-65
2022/07/20 09:41:31;;;;;;;23.50;16.00;;;32.20;61.80;;;;;;5034191;28;20128;-65
2022/07/20 09:43:59;;;;;;;27.10;16.52;;;32.70;60.20;;;;;;5064820;28;20453;-65
2022/07/20 09:46:26;;;;;;;26.38;17.30;;;33.40;60.10;;;;;;5046669;28;20024;-65
2022/07/20 09:48:56;;;;;;;25.83;16.60;;;33.40;59.60;;;;;;5065090;28;20012;-65
2022/07/20 09:51:27;;;;;;;24.65;16.38;;;33.30;59.60;;;;;;5046352;28;20028;-65
2022/07/20 09:53:55;;;;;;;30.25;17.55;;;32.60;60.60;;;;;;5065898;28;20020;-65
2022/07/20 09:56:23;;;;;;;24.63;16.95;;;32.70;61.30;;;;;;5046800;28;20118;-65
2022/07/20 09:58:51;;;;;;;24.35;16.00;;;33.00;60.60;;;;;;5065497;28;20055;-65
2022/07/20 10:01:28;;;;;;;23.98;15.68;;;33.40;59.50;;;;;;5064936;28;20496;-65
2022/07/20 10:03:57;;;;;;;26.92;14.77;;;33.00;59.40;;;;;;5061505;28;20103;-65
2022/07/20 10:06:26;;;;;;;27.25;16.92;;;32.80;60.30;;;;;;5046274;28;20109;-65
2022/07/20 10:08:51;;;;;;;;;;;32.80;61.10;;;;;;5065797;28;20045;-65
2022/07/20 10:11:19;;;;;;;25.23;13.95;;;33.30;60.10;;;;;;5064590;28;19904;-65
2022/07/20 10:13:48;;;;;;;26.40;14.25;;;32.70;60.10;;;;;;5063161;28;20020;-65
2022/07/20 10:16:22;;;;;;;22.73;14.77;;;32.60;60.30;;;;;;5058648;28;20073;-65
2022/07/20 10:18:48;;;;;;;23.65;15.43;;;32.40;60.10;;;;;;5065496;28;20099;-65
2022/07/20 10:21:37;;;;;;;24.42;15.40;;;32.70;60.60;;;;;;5061357;28;20159;-65
2022/07/20 10:24:22;;;;;;;26.58;15.63;;;33.50;59.10;;;;;;5037634;28;20413;-65
2022/07/20 10:27:16;;;;;;;25.33;16.08;;;34.20;58.50;;;;;;5063453;28;20447;-65
2022/07/20 10:29:44;;;;;;;22.38;13.20;;;34.00;57.90;;;;;;5049668;28;20467;-65
2022/07/20 10:32:10;;;;;;;26.15;15.13;;;33.90;58.00;;;;;;5065407;28;20487;-65
2022/07/20 10:34:42;;;;;;;22.80;13.95;;;33.20;58.80;;;;;;5059837;28;20096;-65
2022/07/20 10:37:26;;;;;;;27.65;14.55;;;33.30;59.20;;;;;;5062954;28;20516;-65
2022/07/20 10:40:14;;;;;;;19.48;12.02;;;33.30;59.50;;;;;;5065262;28;20360;-65
2022/07/20 10:42:50;;;;;;;21.98;14.05;;;33.50;58.80;;;;;;5062453;28;20025;-65
2022/07/20 10:45:28;;;;;;;24.67;13.85;;;34.20;58.20;;;;;;5061975;28;20020;-65
2022/07/20 10:48:12;;;;;;;18.75;10.98;;;33.90;57.90;;;;;;5065833;28;20059;-65
2022/07/20 10:50:39;;;;;;;24.08;13.30;;;33.90;57.70;;;;;;5066830;28;20040;-65
2022/07/20 10:53:11;;;;;;;22.92;13.88;;;33.70;58.20;;;;;;5068795;28;20086;-65
2022/07/20 10:55:42;;;;;;;25.42;14.20;;;33.40;58.30;;;;;;5064432;28;20106;-65
2022/07/20 10:58:07;;;;;;;20.80;14.18;;;33.20;58.80;;;;;;5068860;28;20456;-65
2022/07/20 11:00:36;;;;;;;25.35;13.75;;;33.80;58.60;;;;;;5068001;28;20056;-65
2022/07/20 11:03:04;;;;;;;23.20;13.68;;;34.30;57.60;;;;;;5068888;28;20024;-65
2022/07/20 11:05:30;;;;;;;22.65;12.95;;;34.60;57.00;;;;;;5068057;28;20138;-67
2022/07/20 11:07:56;;;;;;;23.40;14.07;;;34.20;57.60;;;;;;5069337;28;20095;-67
2022/07/20 11:10:25;;;;;;;22.10;14.68;;;33.70;58.10;;;;;;5068565;28;20028;-65
2022/07/20 11:12:57;;;;;;;21.80;13.93;;;34.10;58.70;;;;;;5063743;28;20048;-65
2022/07/20 11:15:36;;;;;;;22.13;14.07;;;34.20;57.30;;;;;;5066753;28;20020;-65
2022/07/20 11:18:01;;;;;;;28.83;14.68;;;34.80;57.30;;;;;;5065412;28;20017;-65
2022/07/20 11:20:27;;;;;;;17.52;10.10;;;34.90;57.00;;;;;;5068067;28;20031;-65
2022/07/20 11:22:56;;;;;;;22.27;13.68;;;34.10;56.90;;;;;;5068097;28;20032;-65
2022/07/20 11:25:21;;;;;;;23.52;13.20;;;34.00;57.70;;;;;;5067927;28;20332;-65
2022/07/20 11:28:03;;;;;;;17.55;10.38;;;34.40;57.00;;;;;;5050040;28;20036;-65
2022/07/20 11:30:36;;;;;;;26.52;13.48;;;34.20;56.80;;;;;;5046275;28;20382;-65
2022/07/20 11:33:02;;;;;;;26.83;12.73;;;34.50;57.00;;;;;;5048255;28;20025;-65
2022/07/20 11:35:28;;;;;;;23.33;12.10;;;35.10;56.30;;;;;;5067084;28;20016;-65
2022/07/20 11:37:54;;;;;;;20.35;12.30;;;35.10;56.00;;;;;;5067983;28;20616;-66
2022/07/20 11:40:23;;;;;;;20.63;10.40;;;35.40;55.90;;;;;;5067597;28;20252;-66
2022/07/20 11:43:08;;;;;;;;;;;35.10;55.90;;;;;;5066759;28;20071;-67
2022/07/20 11:45:34;;;;;;;19.52;12.90;;;35.20;57.50;;;;;;5047749;28;19908;-67
2022/07/20 11:48:03;;;;;;;18.60;12.60;;;35.70;56.00;;;;;;5050114;28;20135;-69
2022/07/20 11:50:32;;;;;;;16.95;9.98;;;35.90;56.00;;;;;;5068291;28;20044;-69
2022/07/20 11:52:58;;;;;;;20.48;12.60;;;35.60;55.70;;;;;;5068295;28;20055;-69
2022/07/20 11:55:35;;;;;;;18.25;12.13;;;35.10;56.20;;;;;;5063603;28;20032;-68
2022/07/20 11:58:01;;;;;;;18.35;10.70;;;34.80;57.50;;;;;;5049493;28;20024;-68
2022/07/20 12:00:29;;;;;;;20.48;11.85;;;34.60;57.40;;;;;;5065166;28;20040;-68
2022/07/20 12:02:55;;;;;;;17.02;10.68;;;35.30;57.60;;;;;;5067748;28;20578;-68
2022/07/20 12:05:21;;;;;;;18.48;10.10;;;36.30;55.80;;;;;;5067392;28;20415;-68
2022/07/20 12:10:34;;;;;;;17.48;12.05;;;35.60;55.90;;;;;;5067389;28;20165;-67
2022/07/20 12:13:07;;;;;;;21.55;11.18;;;36.10;55.20;;;;;;5061766;28;20021;-67
2022/07/20 12:15:34;;;;;;;22.33;12.40;;;35.80;55.60;;;;;;5066745;28;20025;-66
2022/07/20 12:17:59;;;;;;;19.55;12.25;;;35.90;56.00;;;;;;5067262;28;20024;-66
2022/07/20 12:20:26;;;;;;;18.88;11.95;;;35.90;55.60;;;;;;5049751;28;20077;-68
2022/07/20 12:22:57;;;;;;;20.17;12.35;;;35.70;56.40;;;;;;5067596;28;20375;-69
2022/07/20 12:25:38;;;;;;;21.58;11.07;;;36.10;55.80;;;;;;5063225;28;20040;-68
2022/07/20 12:28:04;;;;;;;19.88;10.82;;;36.00;56.40;;;;;;5049114;28;20496;-68
2022/07/20 12:30:37;;;;;;;20.30;11.18;;;35.80;56.70;;;;;;5066658;28;20118;-68
2022/07/20 12:33:14;;;;;;;21.67;12.30;;;35.90;56.40;;;;;;5067168;28;20119;-68
2022/07/20 12:35:46;;;;;;;17.13;11.77;;;35.30;56.90;;;;;;5065909;28;20025;-68
2022/07/20 12:38:13;;;;;;;16.35;11.23;;;36.70;56.60;;;;;;5063756;28;20047;-68
2022/07/20 12:40:40;;;;;;;15.20;9.82;;;36.30;56.40;;;;;;5063840;28;20079;-68